sensor_id;sensor_type;location;lat;lon;timestamp;temperature;humidity
20291;DHT22;10304;51.074;13.754;2024-01-10T00:02:00;-6.30;99.90
20291;DHT22;10304;51.074;13.754;2024-01-10T00:04:27;-6.20;99.90
20291;DHT22;10304;51.074;13.754;2024-01-10T00:06:53;-6.20;99.90
20291;DHT22;10304;51.074;13.754;2024-01-10T00:09:20;-6.20;99.90
20291;DHT22;10304;51.074;13.754;2024-01-10T00:11:47;-6.30;99.90
20291;DHT22;10304;51.074;13.754;2024-01-10T00:14:14;-6.30;99.90
20291;DHT22;10304;51.074;13.754;2024-01-10T00:16:41;-6.30;99.90
20291;DHT22;10304;51.074;13.754;2024-01-10T00:19:08;-6.40;99.90
20291;DHT22;10304;51.074;13.754;2024-01-10T00:21:35;-6.40;99.90
20291;DHT22;10304;51.074;13.754;2024-01-10T00:24:03;-6.40;99.90
20291;DHT22;10304;51.074;13.754;2024-01-10T00:26:30;-6.50;99.90
20291;DHT22;10304;51.074;13.754;2024-01-10T00:28:56;-6.50;99.90
20291;DHT22;10304;51.074;13.754;2024-01-10T00:31:30;-6.50;99.90
20291;DHT22;10304;51.074;13.754;2024-01-10T00:33:58;-6.60;99.90
20291;DHT22;10304;51.074;13.754;2024-01-10T00:36:26;-6.50;99.90
20291;DHT22;10304;51.074;13.754;2024-01-10T00:38:52;-6.60;99.90
20291;DHT22;10304;51.074;13.754;2024-01-10T00:41:19;-6.60;99.90
20291;DHT22;10304;51.074;13.754;2024-01-10T00:43:46;-6.60;99.90
20291;DHT22;10304;51.074;13.754;2024-01-10T00:46:13;-6.60;99.90
20291;DHT22;10304;51.074;13.754;2024-01-10T00:48:40;-6.70;99.90
20291;DHT22;10304;51.074;13.754;2024-01-10T00:51:07;-6.70;99.90
20291;DHT22;10304;51.074;13.754;2024-01-10T00:53:36;-6.70;99.90
20291;DHT22;10304;51.074;13.754;2024-01-10T00:56:06;-6.80;99.90
20291;DHT22;10304;51.074;13.754;2024-01-10T00:58:33;-6.80;99.90
20291;DHT22;10304;51.074;13.754;2024-01-10T01:01:00;-6.80;99.90
20291;DHT22;10304;51.074;13.754;2024-01-10T01:03:28;-6.90;99.90
20291;DHT22;10304;51.074;13.754;2024-01-10T01:05:55;-6.90;99.90
20291;DHT22;10304;51.074;13.754;2024-01-10T01:08:22;-6.90;99.90
20291;DHT22;10304;51.074;13.754;2024-01-10T01:10:49;-6.90;99.90
20291;DHT22;10304;51.074;13.754;2024-01-10T01:13:16;-6.90;99.90
20291;DHT22;10304;51.074;13.754;2024-01-10T01:15:43;-6.90;99.90
20291;DHT22;10304;51.074;13.754;2024-01-10T01:18:12;-7.00;99.90
20291;DHT22;10304;51.074;13.754;2024-01-10T01:20:40;-7.00;99.90
20291;DHT22;10304;51.074;13.754;2024-01-10T01:23:07;-7.00;99.90
20291;DHT22;10304;51.074;13.754;2024-01-10T01:25:34;-7.00;99.90
20291;DHT22;10304;51.074;13.754;2024-01-10T01:28:00;-7.00;99.90
20291;DHT22;10304;51.074;13.754;2024-01-10T01:30:27;-7.00;99.90
20291;DHT22;10304;51.074;13.754;2024-01-10T01:32:54;-7.00;99.90
20291;DHT22;10304;51.074;13.754;2024-01-10T01:35:21;-7.00;99.90
20291;DHT22;10304;51.074;13.754;2024-01-10T01:37:49;-7.00;99.90
20291;DHT22;10304;51.074;13.754;2024-01-10T01:40:18;-7.00;99.90
20291;DHT22;10304;51.074;13.754;2024-01-10T01:42:45;-7.00;99.90
20291;DHT22;10304;51.074;13.754;2024-01-10T01:45:12;-7.00;99.90
20291;DHT22;10304;51.074;13.754;2024-01-10T01:47:40;-7.00;99.90
20291;DHT22;10304;51.074;13.754;2024-01-10T01:50:08;-7.00;99.90
20291;DHT22;10304;51.074;13.754;2024-01-10T01:52:36;-7.00;99.90
20291;DHT22;10304;51.074;13.754;2024-01-10T01:55:05;-7.00;99.90
20291;DHT22;10304;51.074;13.754;2024-01-10T01:57:33;-7.10;99.90
20291;DHT22;10304;51.074;13.754;2024-01-10T02:00:01;-7.10;99.90
20291;DHT22;10304;51.074;13.754;2024-01-10T02:02:29;-7.10;99.90
20291;DHT22;10304;51.074;13.754;2024-01-10T02:04:58;-7.10;99.90
20291;DHT22;10304;51.074;13.754;2024-01-10T02:07:26;-7.10;99.90
20291;DHT22;10304;51.074;13.754;2024-01-10T02:09:53;-7.10;99.90
20291;DHT22;10304;51.074;13.754;2024-01-10T02:12:20;-7.20;99.90
20291;DHT22;10304;51.074;13.754;2024-01-10T02:14:47;-7.30;99.90
20291;DHT22;10304;51.074;13.754;2024-01-10T02:17:14;-7.30;99.90
20291;DHT22;10304;51.074;13.754;2024-01-10T02:19:42;-7.20;99.90
20291;DHT22;10304;51.074;13.754;2024-01-10T02:22:09;-7.30;99.90
20291;DHT22;10304;51.074;13.754;2024-01-10T02:24:38;-7.30;99.90
20291;DHT22;10304;51.074;13.754;2024-01-10T02:27:05;-7.40;99.90
20291;DHT22;10304;51.074;13.754;2024-01-10T02:29:31;-7.40;99.90
20291;DHT22;10304;51.074;13.754;2024-01-10T02:32:00;-7.40;99.90
20291;DHT22;10304;51.074;13.754;2024-01-10T02:34:27;-7.40;99.90
20291;DHT22;10304;51.074;13.754;2024-01-10T02:36:56;-7.40;99.90
20291;DHT22;10304;51.074;13.754;2024-01-10T02:39:24;-7.50;99.90
20291;DHT22;10304;51.074;13.754;2024-01-10T02:41:51;-7.50;99.90
20291;DHT22;10304;51.074;13.754;2024-01-10T02:44:18;-7.50;99.90
20291;DHT22;10304;51.074;13.754;2024-01-10T02:46:46;-7.50;99.90
20291;DHT22;10304;51.074;13.754;2024-01-10T02:49:13;-7.50;99.90
20291;DHT22;10304;51.074;13.754;2024-01-10T02:51:40;-7.50;99.90
20291;DHT22;10304;51.074;13.754;2024-01-10T02:54:07;-7.50;99.90
20291;DHT22;10304;51.074;13.754;2024-01-10T02:56:34;-7.50;99.90
20291;DHT22;10304;51.074;13.754;2024-01-10T02:59:00;-7.50;99.90
20291;DHT22;10304;51.074;13.754;2024-01-10T03:01:27;-7.50;99.90
20291;DHT22;10304;51.074;13.754;2024-01-10T03:03:54;-7.50;99.90
20291;DHT22;10304;51.074;13.754;2024-01-10T03:06:21;-7.50;99.90
20291;DHT22;10304;51.074;13.754;2024-01-10T03:08:48;-7.50;99.90
20291;DHT22;10304;51.074;13.754;2024-01-10T03:11:15;-7.50;99.90
20291;DHT22;10304;51.074;13.754;2024-01-10T03:13:46;-7.50;99.90
20291;DHT22;10304;51.074;13.754;2024-01-10T03:16:14;-7.50;99.90
20291;DHT22;10304;51.074;13.754;2024-01-10T03:18:40;-7.50;99.90
20291;DHT22;10304;51.074;13.754;2024-01-10T03:21:07;-7.60;99.90
20291;DHT22;10304;51.074;13.754;2024-01-10T03:23:34;-7.60;99.10
20291;DHT22;10304;51.074;13.754;2024-01-10T03:26:01;-7.70;99.30
20291;DHT22;10304;51.074;13.754;2024-01-10T03:28:28;-7.70;99.90
20291;DHT22;10304;51.074;13.754;2024-01-10T03:30:55;-7.70;98.90
20291;DHT22;10304;51.074;13.754;2024-01-10T03:33:22;-7.70;98.10
20291;DHT22;10304;51.074;13.754;2024-01-10T03:35:49;-7.80;98.90
20291;DHT22;10304;51.074;13.754;2024-01-10T03:38:16;-7.80;99.90
20291;DHT22;10304;51.074;13.754;2024-01-10T03:40:43;-7.80;99.90
20291;DHT22;10304;51.074;13.754;2024-01-10T03:43:10;-7.80;99.90
20291;DHT22;10304;51.074;13.754;2024-01-10T03:45:39;-7.80;99.90
20291;DHT22;10304;51.074;13.754;2024-01-10T03:48:06;-7.90;99.90
20291;DHT22;10304;51.074;13.754;2024-01-10T03:50:33;-7.90;99.90
20291;DHT22;10304;51.074;13.754;2024-01-10T03:53:00;-7.90;99.90
20291;DHT22;10304;51.074;13.754;2024-01-10T03:55:28;-7.90;99.90
20291;DHT22;10304;51.074;13.754;2024-01-10T03:57:56;-7.90;99.90
20291;DHT22;10304;51.074;13.754;2024-01-10T04:00:23;-7.90;99.90
20291;DHT22;10304;51.074;13.754;2024-01-10T04:02:52;-7.90;99.90
20291;DHT22;10304;51.074;13.754;2024-01-10T04:05:19;-7.90;99.90
20291;DHT22;10304;51.074;13.754;2024-01-10T04:07:47;-7.90;99.90
20291;DHT22;10304;51.074;13.754;2024-01-10T04:10:14;-7.90;99.90
20291;DHT22;10304;51.074;13.754;2024-01-10T04:12:42;-8.00;99.90
20291;DHT22;10304;51.074;13.754;2024-01-10T04:15:10;-8.00;99.90
20291;DHT22;10304;51.074;13.754;2024-01-10T04:17:37;-7.90;99.90
20291;DHT22;10304;51.074;13.754;2024-01-10T04:20:05;-7.90;99.90
20291;DHT22;10304;51.074;13.754;2024-01-10T04:22:33;-7.90;99.90
20291;DHT22;10304;51.074;13.754;2024-01-10T04:25:01;-7.90;99.90
20291;DHT22;10304;51.074;13.754;2024-01-10T04:27:28;-7.90;99.90
20291;DHT22;10304;51.074;13.754;2024-01-10T04:29:55;-7.90;99.90
20291;DHT22;10304;51.074;13.754;2024-01-10T04:32:22;-7.90;99.90
20291;DHT22;10304;51.074;13.754;2024-01-10T04:34:49;-7.80;99.90
20291;DHT22;10304;51.074;13.754;2024-01-10T04:37:17;-7.80;99.90
20291;DHT22;10304;51.074;13.754;2024-01-10T04:39:44;-7.80;99.90
20291;DHT22;10304;51.074;13.754;2024-01-10T04:42:11;-7.80;99.90
20291;DHT22;10304;51.074;13.754;2024-01-10T04:44:38;-7.80;99.90
20291;DHT22;10304;51.074;13.754;2024-01-10T04:47:06;-7.90;99.90
20291;DHT22;10304;51.074;13.754;2024-01-10T04:49:34;-7.90;99.90
20291;DHT22;10304;51.074;13.754;2024-01-10T04:52:01;-7.90;99.90
20291;DHT22;10304;51.074;13.754;2024-01-10T04:54:28;-7.90;99.90
20291;DHT22;10304;51.074;13.754;2024-01-10T04:56:55;-7.90;99.90
20291;DHT22;10304;51.074;13.754;2024-01-10T04:59:22;-7.90;99.90
20291;DHT22;10304;51.074;13.754;2024-01-10T05:01:49;-7.90;99.90
20291;DHT22;10304;51.074;13.754;2024-01-10T05:04:16;-7.90;99.90
20291;DHT22;10304;51.074;13.754;2024-01-10T05:06:44;-7.90;99.90
20291;DHT22;10304;51.074;13.754;2024-01-10T05:09:11;-7.90;99.90
20291;DHT22;10304;51.074;13.754;2024-01-10T05:11:38;-7.90;99.90
20291;DHT22;10304;51.074;13.754;2024-01-10T05:14:07;-7.90;99.90
20291;DHT22;10304;51.074;13.754;2024-01-10T05:16:35;-7.80;99.90
20291;DHT22;10304;51.074;13.754;2024-01-10T05:19:02;-7.80;99.90
20291;DHT22;10304;51.074;13.754;2024-01-10T05:21:33;-7.90;99.90
20291;DHT22;10304;51.074;13.754;2024-01-10T05:24:00;-7.90;99.90
20291;DHT22;10304;51.074;13.754;2024-01-10T05:26:27;-7.90;99.90
20291;DHT22;10304;51.074;13.754;2024-01-10T05:28:54;-7.90;99.90
20291;DHT22;10304;51.074;13.754;2024-01-10T05:31:21;-7.80;99.90
20291;DHT22;10304;51.074;13.754;2024-01-10T05:33:48;-7.80;99.90
20291;DHT22;10304;51.074;13.754;2024-01-10T05:36:15;-7.80;99.90
20291;DHT22;10304;51.074;13.754;2024-01-10T05:38:42;-7.80;99.90
20291;DHT22;10304;51.074;13.754;2024-01-10T05:41:09;-7.80;99.90
20291;DHT22;10304;51.074;13.754;2024-01-10T05:43:36;-7.80;99.90
20291;DHT22;10304;51.074;13.754;2024-01-10T05:46:03;-7.80;99.90
20291;DHT22;10304;51.074;13.754;2024-01-10T05:48:32;-7.80;99.90
20291;DHT22;10304;51.074;13.754;2024-01-10T05:50:59;-7.80;99.90
20291;DHT22;10304;51.074;13.754;2024-01-10T05:53:27;-7.80;99.90
20291;DHT22;10304;51.074;13.754;2024-01-10T05:55:55;-7.80;99.90
20291;DHT22;10304;51.074;13.754;2024-01-10T05:58:21;-7.80;99.90
20291;DHT22;10304;51.074;13.754;2024-01-10T06:00:48;-7.80;99.90
20291;DHT22;10304;51.074;13.754;2024-01-10T06:03:15;-7.80;99.90
20291;DHT22;10304;51.074;13.754;2024-01-10T06:05:42;-7.80;99.90
20291;DHT22;10304;51.074;13.754;2024-01-10T06:08:09;-7.80;99.90
20291;DHT22;10304;51.074;13.754;2024-01-10T06:10:36;-7.80;99.90
20291;DHT22;10304;51.074;13.754;2024-01-10T06:13:04;-7.80;99.90
20291;DHT22;10304;51.074;13.754;2024-01-10T06:15:31;-7.80;99.90
20291;DHT22;10304;51.074;13.754;2024-01-10T06:17:58;-7.80;99.90
20291;DHT22;10304;51.074;13.754;2024-01-10T06:20:25;-7.80;99.90
20291;DHT22;10304;51.074;13.754;2024-01-10T06:22:52;-7.80;99.90
20291;DHT22;10304;51.074;13.754;2024-01-10T06:25:19;-7.80;99.90
20291;DHT22;10304;51.074;13.754;2024-01-10T06:27:46;-7.80;99.90
20291;DHT22;10304;51.074;13.754;2024-01-10T06:30:13;-7.80;99.90
20291;DHT22;10304;51.074;13.754;2024-01-10T06:32:40;-7.80;99.90
20291;DHT22;10304;51.074;13.754;2024-01-10T06:35:07;-7.80;99.90
20291;DHT22;10304;51.074;13.754;2024-01-10T06:37:38;-7.80;99.90
20291;DHT22;10304;51.074;13.754;2024-01-10T06:40:05;-7.80;99.90
20291;DHT22;10304;51.074;13.754;2024-01-10T06:42:33;-7.80;99.90
20291;DHT22;10304;51.074;13.754;2024-01-10T06:45:00;-7.80;99.90
20291;DHT22;10304;51.074;13.754;2024-01-10T06:47:27;-7.90;99.90
20291;DHT22;10304;51.074;13.754;2024-01-10T06:49:54;-7.80;99.90
20291;DHT22;10304;51.074;13.754;2024-01-10T06:52:21;-7.80;99.90
20291;DHT22;10304;51.074;13.754;2024-01-10T06:54:48;-7.80;99.90
20291;DHT22;10304;51.074;13.754;2024-01-10T06:57:15;-7.80;99.90
20291;DHT22;10304;51.074;13.754;2024-01-10T06:59:42;-7.80;99.90
20291;DHT22;10304;51.074;13.754;2024-01-10T07:02:10;-7.80;99.90
20291;DHT22;10304;51.074;13.754;2024-01-10T07:04:38;-7.80;99.90
20291;DHT22;10304;51.074;13.754;2024-01-10T07:07:05;-7.80;99.90
20291;DHT22;10304;51.074;13.754;2024-01-10T07:09:32;-7.80;99.90
20291;DHT22;10304;51.074;13.754;2024-01-10T07:11:59;-7.70;99.90
20291;DHT22;10304;51.074;13.754;2024-01-10T07:14:26;-7.80;99.90
20291;DHT22;10304;51.074;13.754;2024-01-10T07:16:53;-7.70;99.90
20291;DHT22;10304;51.074;13.754;2024-01-10T07:19:24;-7.70;99.90
20291;DHT22;10304;51.074;13.754;2024-01-10T07:21:51;-7.70;99.90
20291;DHT22;10304;51.074;13.754;2024-01-10T07:24:21;-7.60;99.90
20291;DHT22;10304;51.074;13.754;2024-01-10T07:26:48;-7.60;99.90
20291;DHT22;10304;51.074;13.754;2024-01-10T07:29:15;-7.60;99.90
20291;DHT22;10304;51.074;13.754;2024-01-10T07:31:42;-7.60;99.90
20291;DHT22;10304;51.074;13.754;2024-01-10T07:34:09;-7.50;99.90
20291;DHT22;10304;51.074;13.754;2024-01-10T07:36:43;-7.40;99.90
20291;DHT22;10304;51.074;13.754;2024-01-10T07:39:10;-7.40;99.90
20291;DHT22;10304;51.074;13.754;2024-01-10T07:41:37;-7.40;99.90
20291;DHT22;10304;51.074;13.754;2024-01-10T07:44:04;-7.30;99.90
20291;DHT22;10304;51.074;13.754;2024-01-10T07:46:32;-7.20;99.90
20291;DHT22;10304;51.074;13.754;2024-01-10T07:48:59;-6.90;99.90
20291;DHT22;10304;51.074;13.754;2024-01-10T07:51:27;-6.60;9.20
20291;DHT22;10304;51.074;13.754;2024-01-10T07:53:54;-6.40;99.90
20291;DHT22;10304;51.074;13.754;2024-01-10T07:56:21;-6.20;99.90
20291;DHT22;10304;51.074;13.754;2024-01-10T07:58:48;-6.10;1.00
20291;DHT22;10304;51.074;13.754;2024-01-10T08:01:15;-6.00;1.00
20291;DHT22;10304;51.074;13.754;2024-01-10T08:03:42;-5.90;1.00
20291;DHT22;10304;51.074;13.754;2024-01-10T08:06:09;-5.80;1.00
20291;DHT22;10304;51.074;13.754;2024-01-10T08:08:52;-5.70;99.90
20291;DHT22;10304;51.074;13.754;2024-01-10T08:11:19;-5.60;99.90
20291;DHT22;10304;51.074;13.754;2024-01-10T08:13:46;-5.40;99.90
20291;DHT22;10304;51.074;13.754;2024-01-10T08:16:13;-5.30;99.90
20291;DHT22;10304;51.074;13.754;2024-01-10T08:18:41;-5.10;99.90
20291;DHT22;10304;51.074;13.754;2024-01-10T08:21:09;-4.90;99.90
20291;DHT22;10304;51.074;13.754;2024-01-10T08:23:36;-4.80;99.90
20291;DHT22;10304;51.074;13.754;2024-01-10T08:26:02;-4.70;99.90
20291;DHT22;10304;51.074;13.754;2024-01-10T08:28:32;-4.50;99.90
20291;DHT22;10304;51.074;13.754;2024-01-10T08:30:59;-4.40;99.90
20291;DHT22;10304;51.074;13.754;2024-01-10T08:33:31;-4.20;99.90
20291;DHT22;10304;51.074;13.754;2024-01-10T08:35:58;-4.00;99.90
20291;DHT22;10304;51.074;13.754;2024-01-10T08:38:26;-3.80;99.90
20291;DHT22;10304;51.074;13.754;2024-01-10T08:40:53;-3.50;99.90
20291;DHT22;10304;51.074;13.754;2024-01-10T08:43:21;-3.30;99.90
20291;DHT22;10304;51.074;13.754;2024-01-10T08:45:48;-3.10;99.90
20291;DHT22;10304;51.074;13.754;2024-01-10T08:48:15;-2.80;99.90
20291;DHT22;10304;51.074;13.754;2024-01-10T08:50:43;-2.50;99.90
20291;DHT22;10304;51.074;13.754;2024-01-10T08:53:11;-2.30;99.90
20291;DHT22;10304;51.074;13.754;2024-01-10T08:55:38;-2.00;99.90
20291;DHT22;10304;51.074;13.754;2024-01-10T08:58:05;-1.70;99.90
20291;DHT22;10304;51.074;13.754;2024-01-10T09:00:31;-1.40;99.90
20291;DHT22;10304;51.074;13.754;2024-01-10T09:02:58;-1.10;99.90
20291;DHT22;10304;51.074;13.754;2024-01-10T09:05:25;-0.90;99.90
20291;DHT22;10304;51.074;13.754;2024-01-10T09:07:54;-0.70;99.90
20291;DHT22;10304;51.074;13.754;2024-01-10T09:10:21;-0.40;97.10
20291;DHT22;10304;51.074;13.754;2024-01-10T09:12:48;-0.20;65.00
20291;DHT22;10304;51.074;13.754;2024-01-10T09:15:16;0.10;18.40
20291;DHT22;10304;51.074;13.754;2024-01-10T09:17:43;0.40;6.20
20291;DHT22;10304;51.074;13.754;2024-01-10T09:20:11;0.70;1.00
20291;DHT22;10304;51.074;13.754;2024-01-10T09:22:39;1.00;1.00
20291;DHT22;10304;51.074;13.754;2024-01-10T09:25:06;1.20;1.00
20291;DHT22;10304;51.074;13.754;2024-01-10T09:27:33;1.50;1.00
20291;DHT22;10304;51.074;13.754;2024-01-10T09:30:04;1.70;1.00
20291;DHT22;10304;51.074;13.754;2024-01-10T09:32:36;1.80;1.00
20291;DHT22;10304;51.074;13.754;2024-01-10T09:35:03;2.10;1.00
20291;DHT22;10304;51.074;13.754;2024-01-10T09:37:30;2.30;1.00
20291;DHT22;10304;51.074;13.754;2024-01-10T09:39:57;2.60;1.00
20291;DHT22;10304;51.074;13.754;2024-01-10T09:42:26;2.70;1.00
20291;DHT22;10304;51.074;13.754;2024-01-10T09:44:54;3.00;1.00
20291;DHT22;10304;51.074;13.754;2024-01-10T09:47:21;3.20;1.00
20291;DHT22;10304;51.074;13.754;2024-01-10T09:49:49;3.60;1.00
20291;DHT22;10304;51.074;13.754;2024-01-10T09:52:52;3.90;1.00
20291;DHT22;10304;51.074;13.754;2024-01-10T09:55:23;4.20;1.00
20291;DHT22;10304;51.074;13.754;2024-01-10T09:57:51;4.50;1.00
20291;DHT22;10304;51.074;13.754;2024-01-10T10:00:20;4.70;1.00
20291;DHT22;10304;51.074;13.754;2024-01-10T10:02:51;5.00;1.00
20291;DHT22;10304;51.074;13.754;2024-01-10T10:05:18;5.30;1.00
20291;DHT22;10304;51.074;13.754;2024-01-10T10:07:47;5.60;1.00
20291;DHT22;10304;51.074;13.754;2024-01-10T10:10:16;5.90;1.00
20291;DHT22;10304;51.074;13.754;2024-01-10T10:12:51;6.10;1.00
20291;DHT22;10304;51.074;13.754;2024-01-10T10:15:22;6.30;1.00
20291;DHT22;10304;51.074;13.754;2024-01-10T10:17:50;6.50;1.00
20291;DHT22;10304;51.074;13.754;2024-01-10T10:20:21;6.70;1.00
20291;DHT22;10304;51.074;13.754;2024-01-10T10:23:02;7.00;1.00
20291;DHT22;10304;51.074;13.754;2024-01-10T10:25:34;7.30;1.00
20291;DHT22;10304;51.074;13.754;2024-01-10T10:28:03;7.50;1.00
20291;DHT22;10304;51.074;13.754;2024-01-10T10:30:32;7.80;1.00
20291;DHT22;10304;51.074;13.754;2024-01-10T10:33:02;8.00;1.00
20291;DHT22;10304;51.074;13.754;2024-01-10T10:35:29;8.30;1.00
20291;DHT22;10304;51.074;13.754;2024-01-10T10:38:07;8.50;1.00
20291;DHT22;10304;51.074;13.754;2024-01-10T10:40:36;8.70;1.00
20291;DHT22;10304;51.074;13.754;2024-01-10T10:43:04;9.00;1.00
20291;DHT22;10304;51.074;13.754;2024-01-10T10:45:31;9.20;1.00
20291;DHT22;10304;51.074;13.754;2024-01-10T10:48:00;9.40;1.00
20291;DHT22;10304;51.074;13.754;2024-01-10T10:50:34;9.60;1.00
20291;DHT22;10304;51.074;13.754;2024-01-10T10:53:03;9.90;1.00
20291;DHT22;10304;51.074;13.754;2024-01-10T10:55:31;10.00;1.00
20291;DHT22;10304;51.074;13.754;2024-01-10T10:58:01;10.10;1.00
20291;DHT22;10304;51.074;13.754;2024-01-10T11:00:38;10.30;1.00
20291;DHT22;10304;51.074;13.754;2024-01-10T11:03:10;10.50;1.00
20291;DHT22;10304;51.074;13.754;2024-01-10T11:05:41;10.60;1.00
20291;DHT22;10304;51.074;13.754;2024-01-10T11:08:12;10.80;1.00
20291;DHT22;10304;51.074;13.754;2024-01-10T11:10:40;10.90;1.00
20291;DHT22;10304;51.074;13.754;2024-01-10T11:13:35;11.00;1.00
20291;DHT22;10304;51.074;13.754;2024-01-10T11:16:33;11.20;1.00
20291;DHT22;10304;51.074;13.754;2024-01-10T11:19:58;11.40;1.00
20291;DHT22;10304;51.074;13.754;2024-01-10T11:24:59;11.60;1.00
20291;DHT22;10304;51.074;13.754;2024-01-10T11:27:29;11.70;1.00
20291;DHT22;10304;51.074;13.754;2024-01-10T11:29:56;11.90;1.00
20291;DHT22;10304;51.074;13.754;2024-01-10T11:32:27;12.00;1.00
20291;DHT22;10304;51.074;13.754;2024-01-10T11:34:54;12.00;1.00
20291;DHT22;10304;51.074;13.754;2024-01-10T11:37:38;12.10;1.00
20291;DHT22;10304;51.074;13.754;2024-01-10T11:40:09;12.10;1.00
20291;DHT22;10304;51.074;13.754;2024-01-10T11:42:43;12.20;1.00
20291;DHT22;10304;51.074;13.754;2024-01-10T11:48:04;12.50;1.00
20291;DHT22;10304;51.074;13.754;2024-01-10T11:50:34;12.60;1.00
20291;DHT22;10304;51.074;13.754;2024-01-10T11:53:04;12.60;1.00
20291;DHT22;10304;51.074;13.754;2024-01-10T11:55:49;12.60;1.00
20291;DHT22;10304;51.074;13.754;2024-01-10T11:58:18;12.70;1.00
20291;DHT22;10304;51.074;13.754;2024-01-10T12:00:46;12.90;1.00
20291;DHT22;10304;51.074;13.754;2024-01-10T12:03:14;13.00;1.00
20291;DHT22;10304;51.074;13.754;2024-01-10T12:05:43;13.10;1.00
20291;DHT22;10304;51.074;13.754;2024-01-10T12:08:11;13.20;1.00
20291;DHT22;10304;51.074;13.754;2024-01-10T12:10:38;13.30;1.00
20291;DHT22;10304;51.074;13.754;2024-01-10T12:13:07;13.50;1.00
20291;DHT22;10304;51.074;13.754;2024-01-10T12:15:37;13.70;1.00
20291;DHT22;10304;51.074;13.754;2024-01-10T12:18:07;13.80;1.00
20291;DHT22;10304;51.074;13.754;2024-01-10T12:20:36;14.00;1.00
20291;DHT22;10304;51.074;13.754;2024-01-10T12:23:03;14.20;1.00
20291;DHT22;10304;51.074;13.754;2024-01-10T12:25:31;14.30;1.00
20291;DHT22;10304;51.074;13.754;2024-01-10T12:28:03;14.50;1.00
20291;DHT22;10304;51.074;13.754;2024-01-10T12:30:39;14.70;1.00
20291;DHT22;10304;51.074;13.754;2024-01-10T12:33:13;14.80;1.00
20291;DHT22;10304;51.074;13.754;2024-01-10T12:35:42;14.90;1.00
20291;DHT22;10304;51.074;13.754;2024-01-10T12:38:12;15.00;1.00
20291;DHT22;10304;51.074;13.754;2024-01-10T12:40:39;15.10;1.00
20291;DHT22;10304;51.074;13.754;2024-01-10T12:43:07;15.20;1.00
20291;DHT22;10304;51.074;13.754;2024-01-10T12:45:36;15.30;1.00
20291;DHT22;10304;51.074;13.754;2024-01-10T12:48:04;15.40;1.00
20291;DHT22;10304;51.074;13.754;2024-01-10T12:50:31;15.50;1.00
20291;DHT22;10304;51.074;13.754;2024-01-10T12:52:58;15.60;1.00
20291;DHT22;10304;51.074;13.754;2024-01-10T12:55:26;15.70;1.00
20291;DHT22;10304;51.074;13.754;2024-01-10T12:57:56;16.00;1.00
20291;DHT22;10304;51.074;13.754;2024-01-10T13:00:29;16.50;1.00
20291;DHT22;10304;51.074;13.754;2024-01-10T13:03:01;16.90;1.00
20291;DHT22;10304;51.074;13.754;2024-01-10T13:05:32;17.30;1.00
20291;DHT22;10304;51.074;13.754;2024-01-10T13:08:03;17.80;1.00
20291;DHT22;10304;51.074;13.754;2024-01-10T13:10:35;18.20;1.00
20291;DHT22;10304;51.074;13.754;2024-01-10T13:13:02;18.60;1.00
20291;DHT22;10304;51.074;13.754;2024-01-10T13:15:29;19.00;1.00
20291;DHT22;10304;51.074;13.754;2024-01-10T13:17:58;19.30;1.00
20291;DHT22;10304;51.074;13.754;2024-01-10T13:20:26;19.70;1.00
20291;DHT22;10304;51.074;13.754;2024-01-10T13:22:54;19.90;1.00
20291;DHT22;10304;51.074;13.754;2024-01-10T13:25:21;20.10;1.00
20291;DHT22;10304;51.074;13.754;2024-01-10T13:27:50;20.30;1.00
20291;DHT22;10304;51.074;13.754;2024-01-10T13:30:18;20.50;1.00
20291;DHT22;10304;51.074;13.754;2024-01-10T13:32:46;20.60;1.00
20291;DHT22;10304;51.074;13.754;2024-01-10T13:35:18;20.70;1.00
20291;DHT22;10304;51.074;13.754;2024-01-10T13:37:50;20.80;1.00
20291;DHT22;10304;51.074;13.754;2024-01-10T13:40:17;20.90;1.00
20291;DHT22;10304;51.074;13.754;2024-01-10T13:42:51;20.90;1.00
20291;DHT22;10304;51.074;13.754;2024-01-10T13:45:19;21.00;1.00
20291;DHT22;10304;51.074;13.754;2024-01-10T13:47:47;21.10;1.00
20291;DHT22;10304;51.074;13.754;2024-01-10T13:50:16;21.10;1.00
20291;DHT22;10304;51.074;13.754;2024-01-10T13:52:53;21.10;1.00
20291;DHT22;10304;51.074;13.754;2024-01-10T13:55:21;21.10;1.00
20291;DHT22;10304;51.074;13.754;2024-01-10T13:57:50;21.10;1.00
20291;DHT22;10304;51.074;13.754;2024-01-10T14:00:28;21.10;1.00
20291;DHT22;10304;51.074;13.754;2024-01-10T14:03:08;21.10;1.00
20291;DHT22;10304;51.074;13.754;2024-01-10T14:05:35;21.10;1.00
20291;DHT22;10304;51.074;13.754;2024-01-10T14:08:06;21.10;1.00
20291;DHT22;10304;51.074;13.754;2024-01-10T14:10:37;21.10;1.00
20291;DHT22;10304;51.074;13.754;2024-01-10T14:13:06;20.90;1.00
20291;DHT22;10304;51.074;13.754;2024-01-10T14:15:38;20.80;1.00
20291;DHT22;10304;51.074;13.754;2024-01-10T14:18:06;20.50;1.00
20291;DHT22;10304;51.074;13.754;2024-01-10T14:20:36;20.50;1.00
20291;DHT22;10304;51.074;13.754;2024-01-10T14:23:07;20.40;1.00
20291;DHT22;10304;51.074;13.754;2024-01-10T14:25:34;20.30;1.00
20291;DHT22;10304;51.074;13.754;2024-01-10T14:28:01;20.20;1.00
20291;DHT22;10304;51.074;13.754;2024-01-10T14:30:30;20.00;1.00
20291;DHT22;10304;51.074;13.754;2024-01-10T14:32:59;19.80;1.00
20291;DHT22;10304;51.074;13.754;2024-01-10T14:35:27;19.70;1.00
20291;DHT22;10304;51.074;13.754;2024-01-10T14:37:56;19.40;1.00
20291;DHT22;10304;51.074;13.754;2024-01-10T14:40:23;19.30;1.00
20291;DHT22;10304;51.074;13.754;2024-01-10T14:42:51;19.10;1.00
20291;DHT22;10304;51.074;13.754;2024-01-10T14:45:18;18.80;1.00
20291;DHT22;10304;51.074;13.754;2024-01-10T14:47:48;18.50;1.00
20291;DHT22;10304;51.074;13.754;2024-01-10T14:50:16;18.20;1.00
20291;DHT22;10304;51.074;13.754;2024-01-10T14:52:58;17.70;1.00
20291;DHT22;10304;51.074;13.754;2024-01-10T14:55:26;17.10;1.00
20291;DHT22;10304;51.074;13.754;2024-01-10T14:57:57;16.70;1.00
20291;DHT22;10304;51.074;13.754;2024-01-10T15:00:25;16.20;1.00
20291;DHT22;10304;51.074;13.754;2024-01-10T15:02:52;15.70;1.00
20291;DHT22;10304;51.074;13.754;2024-01-10T15:05:20;15.20;1.00
20291;DHT22;10304;51.074;13.754;2024-01-10T15:07:49;14.70;1.00
20291;DHT22;10304;51.074;13.754;2024-01-10T15:10:17;14.10;1.00
20291;DHT22;10304;51.074;13.754;2024-01-10T15:12:47;13.60;1.00
20291;DHT22;10304;51.074;13.754;2024-01-10T15:15:14;13.00;1.00
20291;DHT22;10304;51.074;13.754;2024-01-10T15:17:41;12.50;1.00
20291;DHT22;10304;51.074;13.754;2024-01-10T15:20:09;12.00;1.00
20291;DHT22;10304;51.074;13.754;2024-01-10T15:22:37;11.50;1.00
20291;DHT22;10304;51.074;13.754;2024-01-10T15:25:06;11.10;1.00
20291;DHT22;10304;51.074;13.754;2024-01-10T15:27:34;10.70;1.00
20291;DHT22;10304;51.074;13.754;2024-01-10T15:30:02;10.30;1.00
20291;DHT22;10304;51.074;13.754;2024-01-10T15:32:48;9.90;1.00
20291;DHT22;10304;51.074;13.754;2024-01-10T15:35:16;9.50;1.00
20291;DHT22;10304;51.074;13.754;2024-01-10T15:37:44;9.10;1.00
20291;DHT22;10304;51.074;13.754;2024-01-10T15:40:11;8.80;1.00